Time;durP1;ratioP1;P1;durP2;ratioP2;P2;SDS_P1;SDS_P2;PMS_P1;PMS_P2;Temp;Humidity;BMP_temperature;BMP_pressure;BME280_temperature;BME280_humidity;BME280_pressure;Samples;Min_cycle;Max_cycle;Signal;HPM_P1;HPM_P2
2022/07/13 00:01:56;;;;;;;2.30;2.10;;;17.00;99.90;;;-141.84;61.60;20137.00;5031982;28;20296;-55
2022/07/13 00:04:24;;;;;;;3.00;2.08;;;17.00;99.90;;;-141.84;62.11;20110.56;5031631;28;20232;-59
2022/07/13 00:06:52;;;;;;;2.60;2.22;;;17.00;99.90;;;-141.84;61.52;20134.97;5031237;28;20234;-59
2022/07/13 00:09:22;;;;;;;3.85;2.15;;;16.80;99.90;;;-141.84;61.92;20086.19;5031597;28;20232;-59
2022/07/13 00:11:50;;;;;;;3.40;2.22;;;17.00;99.90;;;-141.84;62.35;20141.06;5031578;28;20357;-58
2022/07/13 00:14:18;;;;;;;4.55;2.20;;;17.00;99.90;;;-141.84;61.46;20092.28;5031752;28;20720;-56
2022/07/13 00:16:46;;;;;;;3.85;2.20;;;17.00;99.90;;;-141.84;61.62;20145.13;5030965;28;20249;-57
2022/07/13 00:19:15;;;;;;;2.30;2.10;;;17.00;99.90;;;-141.84;62.28;20057.72;5031359;28;20299;-57
2022/07/13 00:21:43;;;;;;;3.05;2.08;;;16.90;99.90;;;-141.84;63.10;20031.31;5031110;28;20309;-57
2022/07/13 00:24:14;;;;;;;3.20;2.10;;;16.80;99.90;;;-141.84;63.47;20051.63;5031045;28;20572;-57
2022/07/13 00:26:43;;;;;;;4.70;2.60;;;16.80;99.90;;;-141.84;63.95;20013.00;5031328;28;20252;-58
2022/07/13 00:29:11;;;;;;;2.78;2.40;;;16.70;99.90;;;-141.84;64.06;20057.72;5031826;28;20194;-58
2022/07/13 00:31:39;;;;;;;4.72;2.25;;;16.70;99.90;;;-141.84;64.36;20035.38;5030942;28;20236;-57
2022/07/13 00:34:08;;;;;;;2.85;2.15;;;16.70;99.90;;;-141.84;64.16;20008.94;5030958;28;20744;-56
2022/07/13 00:36:37;;;;;;;2.50;2.13;;;16.70;99.90;;;-141.84;63.12;20019.13;5030647;28;20232;-58
2022/07/13 00:39:05;;;;;;;3.55;2.22;;;16.70;99.90;;;-141.84;63.61;20029.28;5031148;28;20715;-57
2022/07/13 00:41:33;;;;;;;2.90;2.15;;;16.70;99.90;;;-141.84;63.75;20015.03;5030638;28;20760;-55
2022/07/13 00:44:09;;;;;;;2.20;2.00;;;16.70;99.90;;;-141.84;63.72;20031.31;5031320;28;20574;-58
2022/07/13 00:46:40;;;;;;;2.35;2.10;;;16.70;99.90;;;-141.84;63.71;20061.78;5030898;28;20301;-57
2022/07/13 00:49:09;;;;;;;4.95;2.58;;;16.70;99.90;;;-141.84;63.99;20051.63;5030820;28;20737;-57
2022/07/13 00:51:39;;;;;;;3.45;2.28;;;16.80;99.90;;;-141.84;63.10;20094.31;5029861;28;20606;-58
2022/07/13 00:54:08;;;;;;;2.28;2.15;;;16.90;99.90;;;-141.84;62.94;20130.91;5030854;28;20221;-56
2022/07/13 00:56:37;;;;;;;3.45;2.47;;;16.90;99.90;;;-141.84;63.06;20139.03;5030583;28;20226;-57
2022/07/13 00:59:08;;;;;;;3.10;2.33;;;17.00;99.90;;;-141.84;62.74;20120.75;5031237;28;20208;-57
2022/07/13 01:01:36;;;;;;;3.13;2.70;;;17.00;99.90;;;-141.84;62.51;20139.03;5030709;28;20236;-58
2022/07/13 01:04:05;;;;;;;3.80;2.65;;;17.10;99.90;;;-141.84;62.28;20132.94;5030700;28;20225;-58
2022/07/13 01:06:33;;;;;;;3.28;2.60;;;17.10;99.90;;;-141.84;62.06;20132.94;5030186;28;20264;-58
2022/07/13 01:09:02;;;;;;;3.95;2.70;;;17.20;99.90;;;-141.84;61.57;20137.00;5030605;28;20312;-57
2022/07/13 01:11:32;;;;;;;4.55;2.78;;;17.20;99.90;;;-141.84;61.47;20157.31;5030429;28;20317;-56
2022/07/13 01:14:01;;;;;;;5.43;2.72;;;17.30;99.90;;;-141.84;61.55;20169.53;5030929;28;20288;-56
2022/07/13 01:16:31;;;;;;;3.22;2.58;;;17.30;99.90;;;-141.84;61.72;20143.09;5030535;28;20320;-57
2022/07/13 01:19:00;;;;;;;3.78;2.20;;;17.30;99.90;;;-141.84;60.27;20139.03;5030277;28;20649;-58
2022/07/13 01:21:28;;;;;;;3.85;2.42;;;17.30;99.90;;;-141.84;59.81;20191.88;5029949;28;20321;-57
2022/07/13 01:23:58;;;;;;;2.63;2.20;;;17.40;99.90;;;-141.84;60.36;20200.00;5030446;28;20283;-57
2022/07/13 01:26:26;;;;;;;3.72;2.22;;;17.40;99.90;;;-141.84;60.49;20159.34;5030382;28;20289;-57
2022/07/13 01:28:54;;;;;;;3.35;2.03;;;17.40;99.90;;;-141.84;60.09;20189.84;5035779;28;20229;-58
2022/07/13 01:31:35;;;;;;;2.22;2.03;;;17.30;99.90;;;-141.84;60.19;20145.13;5036809;28;20253;-56
2022/07/13 01:34:05;;;;;;;3.00;2.40;;;17.30;99.90;;;-141.84;60.43;20183.75;5036690;28;20225;-55
2022/07/13 01:36:36;;;;;;;2.35;2.00;;;17.40;99.90;;;-141.84;60.40;20155.28;5036412;28;20271;-56
2022/07/13 01:39:06;;;;;;;2.40;2.20;;;17.40;99.90;;;-141.84;60.39;20173.59;5036650;28;20667;-58
2022/07/13 01:41:34;;;;;;;2.55;2.15;;;17.40;99.90;;;-141.84;60.34;20173.59;5036492;28;20264;-58
2022/07/13 01:44:03;;;;;;;4.90;2.40;;;17.40;99.90;;;-141.84;60.59;20175.63;5037292;28;20194;-57
2022/07/13 01:46:31;;;;;;;1.95;1.85;;;17.40;99.90;;;-141.84;60.31;20195.94;5036463;28;20315;-59
2022/07/13 01:48:59;;;;;;;2.38;2.00;;;17.40;99.90;;;-141.84;59.90;20224.41;5036741;28;20249;-58
2022/07/13 01:51:28;;;;;;;2.47;2.00;;;17.50;99.90;;;-141.84;60.22;20181.72;5036443;28;20228;-58
2022/07/13 01:53:56;;;;;;;3.33;1.98;;;17.50;99.90;;;-141.84;60.87;20175.63;5036969;28;20304;-56
2022/07/13 01:56:26;;;;;;;2.80;2.20;;;17.40;99.90;;;-141.84;60.94;20181.72;5036699;28;20744;-60
2022/07/13 01:58:54;;;;;;;2.75;2.47;;;17.50;99.90;;;-141.84;61.32;20155.28;5037383;28;20212;-58
2022/07/13 02:01:23;;;;;;;4.88;2.40;;;17.50;99.90;;;-141.84;60.78;20183.75;5036537;28;20229;-56
2022/07/13 02:03:51;;;;;;;2.47;2.13;;;17.40;99.90;;;-141.84;61.71;20151.22;5036451;28;20229;-58
2022/07/13 02:06:20;;;;;;;2.83;2.50;;;17.40;99.90;;;-141.84;62.14;20161.38;5036489;28;20229;-56
2022/07/13 02:08:48;;;;;;;2.60;2.35;;;17.40;99.90;;;-141.84;62.07;20151.22;5036646;28;20301;-58
2022/07/13 02:11:17;;;;;;;2.40;2.20;;;17.40;99.90;;;-141.84;61.86;20153.25;5037350;28;20225;-57
2022/07/13 02:13:48;;;;;;;2.67;2.30;;;17.40;99.90;;;-141.84;62.28;20151.22;5036618;28;20680;-58
2022/07/13 02:16:17;;;;;;;2.80;2.50;;;17.30;99.90;;;-141.84;62.59;20153.25;5036513;28;20300;-58
2022/07/13 02:18:46;;;;;;;4.57;2.40;;;17.40;99.90;;;-141.84;62.46;20171.56;5036283;28;20279;-58
2022/07/13 02:21:14;;;;;;;2.97;2.20;;;17.40;99.90;;;-141.84;62.16;20179.69;5035795;28;20768;-58
2022/07/13 02:23:42;;;;;;;2.80;2.33;;;17.40;99.90;;;-141.84;62.11;20222.38;5036397;28;20222;-59
2022/07/13 02:26:10;;;;;;;2.58;2.38;;;17.40;99.90;;;-141.84;62.19;20157.31;5036998;28;20297;-56
2022/07/13 02:28:38;;;;;;;2.95;2.38;;;17.40;99.90;;;-141.84;61.88;20169.53;5036139;28;20234;-58
2022/07/13 02:31:08;;;;;;;5.30;2.70;;;17.40;99.90;;;-141.84;61.17;20193.91;5036316;28;20245;-57
2022/07/13 02:33:37;;;;;;;2.85;2.65;;;17.50;99.90;;;-141.84;61.75;20185.78;5036132;28;20324;-58
2022/07/13 02:36:06;;;;;;;2.75;2.30;;;17.50;99.90;;;-141.84;61.96;20191.88;5035986;28;20316;-59
2022/07/13 02:38:34;;;;;;;3.53;2.63;;;17.40;99.90;;;-141.84;62.33;20126.84;5036240;28;20236;-58
2022/07/13 02:41:03;;;;;;;2.70;2.50;;;17.40;99.90;;;-141.84;62.65;20171.56;5033038;28;20316;-58
2022/07/13 02:43:31;;;;;;;3.58;2.60;;;17.30;99.90;;;-141.84;61.72;20177.66;5032599;28;20304;-58
2022/07/13 02:46:00;;;;;;;2.45;2.25;;;17.40;99.90;;;-141.84;61.02;20179.69;5033118;28;20226;-58
2022/07/13 02:48:29;;;;;;;3.22;2.28;;;17.50;99.90;;;-141.84;61.94;20185.78;5032948;28;20225;-58
2022/07/13 02:50:57;;;;;;;3.33;2.40;;;17.50;99.90;;;-141.84;62.90;20130.91;5032819;28;20247;-57
2022/07/13 02:53:25;;;;;;;2.50;2.30;;;17.40;99.90;;;-141.84;63.57;20124.81;5033076;28;20202;-58
2022/07/13 02:55:54;;;;;;;3.38;3.05;;;17.40;99.90;;;-141.84;63.94;20098.38;5033675;28;20288;-55
2022/07/13 02:58:22;;;;;;;3.22;2.72;;;17.30;99.90;;;-141.84;64.12;20130.91;5032745;28;20253;-58
2022/07/13 03:00:50;;;;;;;3.40;2.35;;;17.30;99.90;;;-141.84;64.62;20118.69;5032843;28;20586;-57
2022/07/13 03:03:18;;;;;;;4.50;2.70;;;17.30;99.90;;;-141.84;65.19;20080.09;5032840;28;20249;-58
2022/07/13 03:05:48;;;;;;;3.58;2.38;;;17.20;99.90;;;-141.84;65.27;20102.44;5032607;28;20222;-58
2022/07/13 03:08:16;;;;;;;2.58;2.38;;;17.20;99.90;;;-141.84;65.11;20055.69;5032917;28;20239;-57
2022/07/13 03:10:45;;;;;;;3.03;2.10;;;17.30;99.90;;;-141.84;65.34;20096.34;5032467;28;20218;-57
2022/07/13 03:13:13;;;;;;;4.07;2.72;;;17.20;99.90;;;-141.84;65.34;20082.13;5032624;28;20707;-58
2022/07/13 03:15:42;;;;;;;3.38;2.40;;;17.20;99.90;;;-141.84;64.88;20118.69;5032708;28;20326;-58
2022/07/13 03:18:10;;;;;;;2.78;2.47;;;17.20;99.90;;;-141.84;64.87;20094.31;5032716;28;20648;-57
2022/07/13 03:20:40;;;;;;;3.60;2.22;;;17.20;99.90;;;-141.84;65.62;20090.25;5031936;28;20237;-57
2022/07/13 03:23:09;;;;;;;2.83;2.20;;;17.20;99.90;;;-141.84;65.51;20086.19;5032721;28;20202;-56
2022/07/13 03:25:37;;;;;;;2.78;2.20;;;17.20;99.90;;;-141.84;65.35;20108.53;5032201;28;20230;-58
2022/07/13 03:28:05;;;;;;;2.92;2.13;;;17.20;99.90;;;-141.84;65.52;20134.97;5032311;28;20313;-57
2022/07/13 03:30:34;;;;;;;3.85;2.45;;;17.20;99.90;;;-141.84;65.39;20102.44;5031857;28;20320;-57
2022/07/13 03:33:02;;;;;;;2.15;1.95;;;17.20;99.90;;;-141.84;65.46;20069.94;5032371;28;20409;-58
2022/07/13 03:35:30;;;;;;;2.63;2.30;;;17.20;99.90;;;-141.84;65.28;20065.84;5031923;28;20297;-58
2022/07/13 03:37:58;;;;;;;1.98;1.80;;;17.20;99.90;;;-141.84;65.08;20061.78;5032649;28;20197;-58
2022/07/13 03:40:27;;;;;;;2.97;2.17;;;17.20;99.90;;;-141.84;64.53;20074.00;5031544;28;20268;-57
2022/07/13 03:42:55;;;;;;;2.58;2.20;;;17.20;99.90;;;-141.84;64.17;20126.84;5031873;28;20300;-58
2022/07/13 03:45:24;;;;;;;2.20;2.00;;;17.30;99.90;;;-141.84;63.91;20134.97;5031751;28;20218;-56
2022/07/13 03:47:53;;;;;;;4.60;2.10;;;17.30;99.90;;;-141.84;64.25;20092.28;5032019;28;20225;-57
2022/07/13 03:50:21;;;;;;;3.17;2.00;;;17.30;99.90;;;-141.84;63.47;20120.75;5030967;28;20611;-58
2022/07/13 03:52:49;;;;;;;2.60;2.40;;;17.40;99.90;;;-141.84;63.65;20118.69;5031494;28;20224;-58
2022/07/13 03:55:18;;;;;;;3.78;2.03;;;17.40;99.90;;;-141.84;63.73;20139.03;5031769;28;20655;-56
2022/07/13 03:57:47;;;;;;;3.60;2.10;;;17.40;99.90;;;-141.84;63.94;20134.97;5031983;28;20234;-58
2022/07/13 04:00:16;;;;;;;2.85;2.30;;;17.50;99.90;;;-141.84;62.30;20195.94;5031600;28;20249;-58
2022/07/13 04:02:44;;;;;;;2.78;2.22;;;17.50;99.90;;;-141.84;61.69;20179.69;5031665;28;20304;-58
2022/07/13 04:05:12;;;;;;;4.07;2.08;;;17.60;99.90;;;-141.84;61.86;20171.56;5031927;28;20648;-57
2022/07/13 04:07:41;;;;;;;3.47;2.30;;;17.70;99.90;;;-141.84;62.37;20183.75;5031161;28;20237;-56
2022/07/13 04:10:10;;;;;;;2.17;1.98;;;17.70;99.90;;;-141.84;62.43;20181.72;5031159;28;20312;-57
2022/07/13 04:12:38;;;;;;;2.95;1.90;;;17.80;99.90;;;-141.84;62.42;20153.25;5031400;28;20230;-58
2022/07/13 04:15:09;;;;;;;2.60;2.40;;;17.80;99.90;;;-141.84;61.81;20183.75;5031353;28;20252;-57
2022/07/13 04:17:37;;;;;;;2.45;1.77;;;17.90;99.90;;;-141.84;61.63;20220.34;5031517;28;20182;-56
2022/07/13 04:20:07;;;;;;;3.17;2.30;;;17.90;99.90;;;-141.84;60.99;20220.34;5031024;28;20301;-58
2022/07/13 04:22:36;;;;;;;3.13;2.30;;;18.00;99.90;;;-141.84;60.89;20263.00;5030834;28;20232;-57
2022/07/13 04:25:05;;;;;;;3.13;2.30;;;18.10;99.90;;;-141.84;60.04;20269.13;5031044;28;20250;-57
2022/07/13 04:27:34;;;;;;;2.35;2.10;;;18.10;99.90;;;-141.84;60.39;20269.13;5031001;28;20252;-57
2022/07/13 04:30:03;;;;;;;2.15;1.95;;;18.30;99.90;;;-141.84;60.89;20236.59;5030864;28;20772;-59
2022/07/13 04:32:32;;;;;;;2.47;2.00;;;18.30;99.90;;;-141.84;61.17;20248.78;5030854;28;20771;-57
2022/07/13 04:35:00;;;;;;;6.40;2.67;;;18.30;99.90;;;-141.84;60.64;20285.38;5031264;28;20220;-58
2022/07/13 04:37:28;;;;;;;2.92;2.50;;;18.40;99.90;;;-141.84;60.23;20338.22;5030834;28;20617;-56
2022/07/13 04:39:57;;;;;;;2.15;2.05;;;18.40;99.90;;;-141.84;60.47;20285.38;5030632;28;20507;-57
2022/07/13 04:42:25;;;;;;;2.53;2.30;;;18.40;99.90;;;-141.84;59.81;20301.63;5030740;28;20226;-58
2022/07/13 04:44:53;;;;;;;3.13;2.15;;;18.50;99.90;;;-141.84;59.84;20326.03;5030764;28;20762;-58
2022/07/13 04:47:21;;;;;;;2.75;2.45;;;18.50;99.90;;;-141.84;59.77;20277.25;5031497;28;20514;-57
2022/07/13 04:49:50;;;;;;;2.97;2.17;;;18.50;99.90;;;-141.84;59.17;20372.78;5031287;28;20210;-58
2022/07/13 04:52:19;;;;;;;2.40;2.20;;;18.50;99.90;;;-141.84;59.41;20326.03;5030426;28;20221;-57
2022/07/13 04:54:47;;;;;;;2.53;2.03;;;18.50;99.90;;;-141.84;58.68;20305.69;5030782;28;20316;-58
2022/07/13 04:57:22;;;;;;;2.60;2.10;;;18.50;99.90;;;-141.84;59.39;20344.31;5030814;28;20287;-58
2022/07/13 04:59:51;;;;;;;5.72;2.60;;;18.60;99.90;;;-141.84;59.25;20309.75;5030964;28;20305;-57
2022/07/13 05:02:19;;;;;;;3.75;1.85;;;18.70;99.90;;;-141.84;59.06;20350.41;5030718;28;20233;-57
2022/07/13 05:04:47;;;;;;;3.05;2.20;;;18.70;99.90;;;-141.84;58.94;20338.22;5030909;28;20236;-57
2022/07/13 05:07:17;;;;;;;3.30;2.33;;;18.70;99.90;;;-141.84;58.23;20403.25;5030161;28;20249;-58
2022/07/13 05:09:45;;;;;;;4.13;2.33;;;18.70;99.90;;;-141.84;57.91;20384.97;5030774;28;20717;-57
2022/07/13 05:12:13;;;;;;;2.22;2.03;;;18.70;99.90;;;-141.84;57.59;20403.25;5030465;28;20498;-58
2022/07/13 05:14:41;;;;;;;2.38;2.17;;;18.80;99.90;;;-141.84;57.67;20384.97;5030574;28;20263;-57
2022/07/13 05:17:09;;;;;;;3.60;2.50;;;18.90;99.90;;;-141.84;57.71;20403.25;5030579;28;20650;-58
2022/07/13 05:19:38;;;;;;;2.97;2.10;;;19.00;99.90;;;-141.84;57.21;20441.88;5030086;28;20643;-57
2022/07/13 05:22:06;;;;;;;3.00;2.00;;;19.10;99.90;;;-141.84;56.17;20486.59;5029653;28;20230;-59
2022/07/13 05:24:43;;;;;;;4.10;2.75;;;19.20;99.90;;;-141.84;56.32;20472.38;5030317;28;20225;-57
2022/07/13 05:27:12;;;;;;;4.63;2.25;;;19.30;99.90;;;-141.84;55.66;20476.44;5030369;28;20275;-56
2022/07/13 05:29:40;;;;;;;3.83;2.17;;;19.50;99.90;;;-141.84;55.45;20504.91;5030703;28;20380;-54
2022/07/13 05:32:08;;;;;;;2.50;2.17;;;19.60;99.90;;;-141.84;55.35;20549.63;5030447;28;20236;-57
2022/07/13 05:34:36;;;;;;;4.43;2.58;;;19.70;99.90;;;-141.84;55.40;20508.97;5030267;28;20229;-57
2022/07/13 05:37:04;;;;;;;3.90;1.90;;;19.70;99.90;;;-141.84;54.98;20606.53;5029639;28;20237;-57
2022/07/13 05:39:32;;;;;;;4.07;2.05;;;19.90;99.90;;;-141.84;54.60;20578.09;5030306;28;20606;-58
2022/07/13 05:42:02;;;;;;;2.67;2.40;;;20.10;99.90;;;-141.84;54.23;20563.84;5029766;28;20780;-58
2022/07/13 05:44:30;;;;;;;2.67;2.00;;;20.10;99.90;;;-141.84;53.79;20569.94;5029979;28;20666;-57
2022/07/13 05:46:58;;;;;;;3.97;2.42;;;20.10;99.90;;;-141.84;53.52;20647.19;5030688;28;20212;-58
2022/07/13 05:49:27;;;;;;;5.22;2.22;;;20.20;99.90;;;-141.84;53.21;20639.06;5029916;28;20582;-59
2022/07/13 05:51:55;;;;;;;5.50;2.20;;;20.20;99.90;;;-141.84;52.14;20663.47;5029403;28;20784;-58
2022/07/13 05:54:23;;;;;;;2.47;2.00;;;20.40;99.90;;;-141.84;52.78;20691.91;5030003;28;20249;-58
2022/07/13 05:57:12;;;;;;;3.65;2.38;;;20.60;99.90;;;-141.84;52.53;20685.81;5029868;28;20229;-57
2022/07/13 05:59:41;;;;;;;5.82;2.58;;;20.60;99.90;;;-141.84;51.91;20716.31;5029953;28;20232;-57
2022/07/13 06:02:09;;;;;;;3.92;2.50;;;20.70;99.90;;;-141.84;51.21;20777.28;5030527;28;20221;-58
2022/07/13 06:04:38;;;;;;;3.58;2.40;;;21.00;99.90;;;-141.84;50.67;20785.44;5029920;28;20226;-59
2022/07/13 06:07:06;;;;;;;3.25;2.20;;;21.10;99.90;;;-141.84;49.98;20838.28;5029416;28;20620;-57
2022/07/13 06:09:34;;;;;;;7.50;2.40;;;21.30;99.90;;;-141.84;50.37;20838.28;5029936;28;20601;-57
2022/07/13 06:12:02;;;;;;;3.63;2.35;;;21.40;99.90;;;-141.84;50.40;20848.44;5030020;28;20222;-57
2022/07/13 06:14:32;;;;;;;6.43;2.65;;;21.40;99.90;;;-141.84;49.89;20830.16;5030402;28;20202;-57
2022/07/13 06:17:00;;;;;;;3.50;1.92;;;21.30;99.90;;;-141.84;50.27;20801.69;5033816;28;20713;-57
2022/07/13 06:19:28;;;;;;;2.63;2.35;;;21.40;99.90;;;-141.84;50.62;20805.75;5032897;28;20693;-56
2022/07/13 06:21:56;;;;;;;2.47;1.80;;;21.40;99.90;;;-141.84;50.58;20834.22;5033140;28;20252;-58
2022/07/13 06:24:24;;;;;;;3.78;2.40;;;21.40;99.90;;;-141.84;49.50;20878.94;5033469;28;20305;-59
2022/07/13 06:26:53;;;;;;;3.35;2.17;;;21.50;99.90;;;-141.84;49.38;20903.34;5033410;28;20232;-58
2022/07/13 06:29:21;;;;;;;4.68;1.92;;;21.70;99.90;;;-141.84;47.71;20966.34;5033028;28;20506;-59
2022/07/13 06:31:50;;;;;;;2.95;2.20;;;21.90;99.90;;;-141.84;47.23;21098.50;5033694;28;20289;-59
2022/07/13 06:34:19;;;;;;;6.20;2.15;;;22.20;99.90;;;-141.84;45.92;21088.34;5033168;28;20662;-57
2022/07/13 06:36:47;;;;;;;3.15;2.10;;;22.50;99.90;;;-141.84;45.00;21155.44;5032675;28;20236;-59
2022/07/13 06:39:15;;;;;;;3.40;1.95;;;22.70;99.90;;;-141.84;44.79;21194.06;5033154;28;20313;-58
2022/07/13 06:41:43;;;;;;;4.60;2.30;;;22.70;99.90;;;-141.84;44.19;21238.78;5033328;28;20516;-57
2022/07/13 06:44:12;;;;;;;3.47;2.25;;;22.70;99.90;;;-141.84;45.21;21187.97;5033448;28;20218;-58
2022/07/13 06:46:40;;;;;;;4.25;2.10;;;23.00;99.90;;;-141.84;45.31;21139.16;5032715;28;20304;-59
2022/07/13 06:49:10;;;;;;;4.22;2.25;;;22.80;99.90;;;-141.84;44.67;21192.03;5032850;28;20237;-58
2022/07/13 06:51:38;;;;;;;3.35;2.10;;;22.90;99.90;;;-141.84;45.01;21165.59;5032513;28;20601;-59
2022/07/13 06:54:10;;;;;;;6.72;1.90;;;22.70;99.90;;;-141.84;45.48;21133.06;5032880;28;20226;-58
2022/07/13 06:56:38;;;;;;;2.53;1.98;;;22.80;99.90;;;-141.84;45.33;21131.03;5033097;28;20202;-58
2022/07/13 06:59:06;;;;;;;3.53;2.20;;;22.80;99.90;;;-141.84;44.59;21196.09;5032059;28;20304;-54
2022/07/13 07:01:34;;;;;;;4.40;2.22;;;22.70;99.90;;;-141.84;44.67;21224.56;5032305;28;20226;-59
2022/07/13 07:04:03;;;;;;;3.15;1.88;;;23.10;99.90;;;-141.84;43.62;21212.34;5032155;28;20783;-59
2022/07/13 07:06:32;;;;;;;5.10;2.33;;;23.30;99.90;;;-141.84;44.15;21271.31;5032389;28;20265;-58
2022/07/13 07:09:00;;;;;;;3.30;2.17;;;23.40;99.90;;;-141.84;42.92;21348.56;5032263;28;20227;-54
2022/07/13 07:11:28;;;;;;;5.75;2.30;;;23.70;99.90;;;-141.84;42.70;21350.59;5032460;28;20676;-57
2022/07/13 07:13:58;;;;;;;3.50;2.28;;;23.90;99.90;;;-141.84;42.82;21399.41;5032853;28;20280;-55
2022/07/13 07:16:26;;;;;;;5.35;2.20;;;23.90;99.90;;;-141.84;43.84;21330.28;5032738;28;20287;-61
2022/07/13 07:18:54;;;;;;;2.40;2.08;;;23.90;99.90;;;-141.84;43.30;21328.25;5032636;28;20237;-56
2022/07/13 07:21:44;;;;;;;3.45;2.38;;;23.90;99.90;;;-141.84;42.53;21423.81;5031983;28;20604;-55
2022/07/13 07:24:12;;;;;;;4.78;2.25;;;23.90;99.90;;;-141.84;42.63;21427.88;5031881;28;20240;-54
2022/07/13 07:26:40;;;;;;;5.95;2.10;;;24.00;99.90;;;-141.84;42.54;21387.19;5032428;28;20331;-55
2022/07/13 07:29:08;;;;;;;4.70;1.80;;;24.00;99.90;;;-141.84;41.68;21391.28;5032978;28;20198;-56
2022/07/13 07:31:36;;;;;;;1.90;1.70;;;24.00;99.90;;;-141.84;41.61;21354.66;5032182;28;20735;-54
2022/07/13 07:34:04;;;;;;;3.45;2.00;;;24.00;99.90;;;-141.84;41.42;21429.91;5032269;28;20602;-57
2022/07/13 07:36:33;;;;;;;3.17;2.00;;;23.90;99.90;;;-141.84;41.10;21497.00;5026059;28;20717;-55
2022/07/13 07:39:02;;;;;;;2.65;1.90;;;24.10;99.90;;;-141.84;39.93;21560.03;5032059;28;20226;-56
2022/07/13 07:41:30;;;;;;;2.95;1.60;;;24.20;99.90;;;-141.84;38.99;21584.44;5029962;28;20202;-55
2022/07/13 07:43:59;;;;;;;2.05;1.92;;;24.50;99.90;;;-141.84;39.35;21616.97;5033232;28;20301;-56
2022/07/13 07:46:27;;;;;;;2.30;1.88;;;24.70;99.90;;;-141.84;38.82;21643.38;5032011;28;20587;-55
2022/07/13 07:48:56;;;;;;;4.32;2.08;;;24.80;99.90;;;-141.84;38.11;21718.63;5031918;28;20245;-56
2022/07/13 07:51:25;;;;;;;2.75;1.90;;;25.10;99.90;;;-141.84;37.67;21714.56;5031618;28;20671;-57
2022/07/13 07:54:14;;;;;;;4.40;1.70;;;25.30;99.90;;;-141.84;37.48;21826.41;5031826;28;20230;-58
2022/07/13 07:56:42;;;;;;;4.30;2.08;;;25.60;99.90;;;-141.84;36.03;21980.94;5032583;28;20248;-59
2022/07/13 07:59:10;;;;;;;1.98;1.75;;;25.90;99.90;;;-141.84;36.54;21942.31;5031969;28;20324;-58
2022/07/13 08:01:39;;;;;;;4.95;2.40;;;26.10;99.90;;;-141.84;36.85;21913.84;5031549;28;20253;-59
2022/07/13 08:04:07;;;;;;;2.28;1.70;;;26.10;99.90;;;-141.84;36.80;21891.47;5031506;28;20230;-58
2022/07/13 08:06:37;;;;;;;2.25;1.77;;;26.20;99.90;;;-141.84;37.00;21948.41;5032289;28;20257;-59
2022/07/13 08:09:06;;;;;;;2.72;1.70;;;26.20;99.90;;;-141.84;36.68;22021.59;5032311;28;20515;-58
2022/07/13 08:11:35;;;;;;;2.83;1.90;;;26.40;99.90;;;-141.84;36.33;22005.34;5031269;28;20198;-58
2022/07/13 08:14:03;;;;;;;2.95;1.85;;;26.40;99.90;;;-141.84;36.53;21972.81;5031434;28;20231;-58
2022/07/13 08:16:32;;;;;;;3.55;2.00;;;26.50;99.90;;;-141.84;36.55;21968.72;5031806;28;20620;-59
2022/07/13 08:19:00;;;;;;;4.90;2.00;;;26.60;99.90;;;-141.84;36.53;22050.06;5031274;28;20300;-58
2022/07/13 08:21:48;;;;;;;2.08;1.58;;;26.60;99.90;;;-141.84;36.22;22084.66;5030534;28;20603;-58
2022/07/13 08:24:16;;;;;;;3.63;1.80;;;26.70;99.90;;;-141.84;36.66;22056.19;5031236;28;20272;-56
2022/07/13 08:26:46;;;;;;;5.60;1.77;;;26.70;99.90;;;-141.84;37.11;22052.09;5030973;28;20221;-59
2022/07/13 08:29:14;;;;;;;4.43;1.73;;;26.80;99.90;;;-141.84;37.48;22056.19;5031503;28;20249;-58
2022/07/13 08:31:42;;;;;;;4.57;1.60;;;26.80;99.90;;;-141.84;35.70;22168.03;5030676;28;20246;-58
2022/07/13 08:39:42;;;;;;;4.47;1.50;;;27.00;99.90;;;-141.84;35.58;22137.50;5030478;28;20781;-58
2022/07/13 08:42:14;;;;;;;5.55;1.67;;;27.00;99.90;;;-141.84;35.38;22113.13;5030644;28;20308;-58
2022/07/13 08:44:42;;;;;;;2.90;1.50;;;27.00;99.90;;;-141.84;35.79;22174.13;5049515;28;20723;-57
2022/07/13 08:47:11;;;;;;;2.88;1.55;;;27.10;99.90;;;-141.84;36.13;22127.34;5051094;28;20296;-59
2022/07/13 08:49:40;;;;;;;2.00;1.75;;;27.10;99.90;;;-141.84;35.52;22119.22;5039161;28;20233;-58
2022/07/13 08:52:09;;;;;;;2.03;1.83;;;27.20;99.90;;;-141.84;35.36;22163.94;5030047;28;20280;-58
2022/07/13 08:54:38;;;;;;;3.28;1.38;;;27.20;99.90;;;-141.84;34.78;22249.38;5030166;28;20304;-56
2022/07/13 08:57:06;;;;;;;4.32;1.60;;;27.40;99.90;;;-141.84;34.79;22257.50;5030260;28;20753;-58
2022/07/13 08:59:35;;;;;;;2.08;1.40;;;27.50;99.90;;;-141.84;34.57;22281.91;5029815;28;20198;-58
2022/07/13 09:02:04;;;;;;;2.22;1.45;;;27.60;99.90;;;-141.84;34.35;22334.78;5030870;28;20216;-58
2022/07/13 09:04:32;;;;;;;4.00;1.60;;;27.70;99.90;;;-141.84;34.67;22302.25;5030254;28;20237;-58
2022/07/13 09:07:01;;;;;;;4.18;1.50;;;27.60;99.90;;;-141.84;34.51;22324.59;5030157;28;20226;-57
2022/07/13 09:09:36;;;;;;;3.17;1.40;;;27.70;99.90;;;-141.84;34.10;22414.09;5030049;28;20328;-58
2022/07/13 09:12:26;;;;;;;2.75;1.58;;;28.00;99.90;;;-141.84;32.85;22485.28;5029837;28;20222;-56
2022/07/13 09:14:58;;;;;;;1.60;1.50;;;28.40;99.90;;;-141.84;33.18;22499.50;5029920;28;20229;-59
2022/07/13 09:17:40;;;;;;;2.03;1.23;;;28.60;99.90;;;-141.84;32.74;22566.63;5029625;28;20687;-59
2022/07/13 09:20:23;;;;;;;2.33;1.40;;;28.70;99.90;;;-141.84;32.82;22576.78;5030039;28;20241;-56
2022/07/13 09:23:05;;;;;;;3.00;1.65;;;28.90;99.90;;;-141.84;31.67;22666.28;5030258;28;20206;-57
2022/07/13 09:25:37;;;;;;;4.13;1.70;;;29.00;99.90;;;-141.84;32.97;22601.19;5029695;28;20257;-58
2022/07/13 09:28:07;;;;;;;2.17;1.40;;;29.00;99.90;;;-141.84;33.06;22558.50;5029977;28;20279;-54
2022/07/13 09:30:42;;;;;;;2.55;1.40;;;28.80;99.90;;;-141.84;33.39;22495.44;5029814;28;20237;-55
2022/07/13 09:33:11;;;;;;;1.63;1.35;;;28.80;99.90;;;-141.84;32.56;22515.78;5030019;28;20271;-52
2022/07/13 09:35:45;;;;;;;3.30;1.35;;;28.60;99.90;;;-141.84;33.54;22487.31;5029389;28;20297;-57
2022/07/13 09:38:32;;;;;;;1.67;1.38;;;28.60;99.90;;;-141.84;33.67;22501.53;5030394;28;20185;-50
2022/07/13 09:41:18;;;;;;;1.90;1.40;;;28.60;99.90;;;-141.84;33.82;22517.81;5049886;28;20221;-51
2022/07/13 09:47:00;;;;;;;2.00;1.25;;;28.70;99.90;;;-141.84;33.55;22515.78;5029624;28;20245;-55
2022/07/13 09:49:37;;;;;;;3.58;1.50;;;28.80;99.90;;;-141.84;33.26;22485.28;5040080;28;20225;-56
2022/07/13 09:52:08;;;;;;;3.97;1.50;;;28.60;99.90;;;-141.84;32.94;22517.81;5013601;28;20325;-55
2022/07/13 09:54:39;;;;;;;3.75;1.70;;;28.60;99.90;;;-141.84;32.98;22542.22;5013958;28;20229;-54
2022/07/13 09:57:10;;;;;;;1.85;1.40;;;28.70;99.90;;;-141.84;33.03;22491.38;5014172;28;20309;-51
2022/07/13 09:59:40;;;;;;;2.42;1.55;;;28.70;99.90;;;-141.84;33.59;22367.31;5014061;28;20198;-56
2022/07/13 10:02:10;;;;;;;3.47;1.40;;;28.50;99.90;;;-141.84;34.05;22326.66;5014684;28;20213;-55
2022/07/13 10:04:40;;;;;;;2.20;1.52;;;28.30;99.90;;;-141.84;34.22;22336.81;5013483;28;20230;-54
2022/07/13 10:07:18;;;;;;;3.05;1.50;;;28.30;99.90;;;-141.84;33.03;22414.09;5013413;28;20234;-55
2022/07/13 10:09:47;;;;;;;1.60;1.48;;;28.40;99.90;;;-141.84;32.53;22493.41;5013741;28;20558;-52
2022/07/13 10:12:15;;;;;;;1.75;1.65;;;28.60;99.90;;;-141.84;32.80;22479.16;5015048;28;20223;-52
2022/07/13 10:14:44;;;;;;;2.55;1.42;;;28.60;99.90;;;-141.84;32.64;22497.47;5033484;28;20221;-56
2022/07/13 10:17:23;;;;;;;1.80;1.67;;;28.70;99.90;;;-141.84;32.76;22507.66;5033472;28;20193;-58
2022/07/13 10:20:02;;;;;;;1.50;1.40;;;28.70;99.90;;;-141.84;30.81;22662.22;5033400;28;20618;-54
2022/07/13 10:22:37;;;;;;;1.95;1.52;;;28.90;99.90;;;-141.84;31.23;22656.13;5031532;28;20236;-51
2022/07/13 10:25:07;;;;;;;1.40;1.30;;;29.00;99.90;;;-141.84;30.93;22696.78;5030341;28;20320;-55